Gingelom, Belgium
Current Conditions -  °F | °C
As of 12:25 PM on Thursday 30 Oct 2014 (Local Time) from EBBE Reporting Station
Broken Clouds Broken Clouds  
Wind Chill: 59°   Ceiling: 15000
Heat Index: 59°   Visibility: 5mi
Dew Point: 55°   Wind: 6mph
Humidity: 88%   Direction: 220°SW
Pressure: 30.18"   Gusts: NA
Location:  50.75°N, 5.13°E
Report Text: EBBE 301125Z 22005KT 8000 SCT130 BKN150 15/13 Q1022 BLU BLU
Loading
Personal Weather Stations






























Interactive Weather Map
Tropical Storm Tracking
New forecast layout! Learn more

10-Day Weather Forecast

Advertisements
Track Severe Weather on mobile